sensor_id;sensor_type;location;lat;lon;timestamp;P1;durP1;ratioP1;P2;durP2;ratioP2
12302;SDS011;6214;48.012;7.862;2023-03-04T00:02:26;64.72;;;43.83;;
12302;SDS011;6214;48.012;7.862;2023-03-04T00:04:53;65.82;;;45.22;;
12302;SDS011;6214;48.012;7.862;2023-03-04T00:07:20;59.90;;;41.50;;
12302;SDS011;6214;48.012;7.862;2023-03-04T00:09:46;59.50;;;40.87;;
12302;SDS011;6214;48.012;7.862;2023-03-04T00:12:13;62.85;;;42.85;;
12302;SDS011;6214;48.012;7.862;2023-03-04T00:14:40;60.65;;;41.72;;
12302;SDS011;6214;48.012;7.862;2023-03-04T00:17:07;62.83;;;41.28;;
12302;SDS011;6214;48.012;7.862;2023-03-04T00:19:34;60.47;;;41.20;;
12302;SDS011;6214;48.012;7.862;2023-03-04T00:22:02;61.35;;;40.97;;
12302;SDS011;6214;48.012;7.862;2023-03-04T00:24:30;58.67;;;38.50;;
12302;SDS011;6214;48.012;7.862;2023-03-04T00:26:57;59.47;;;39.30;;
12302;SDS011;6214;48.012;7.862;2023-03-04T00:29:24;60.75;;;40.70;;
12302;SDS011;6214;48.012;7.862;2023-03-04T00:31:51;59.83;;;39.53;;
12302;SDS011;6214;48.012;7.862;2023-03-04T00:34:18;56.00;;;38.70;;
12302;SDS011;6214;48.012;7.862;2023-03-04T00:36:46;58.30;;;38.70;;
12302;SDS011;6214;48.012;7.862;2023-03-04T00:39:13;55.40;;;38.47;;
12302;SDS011;6214;48.012;7.862;2023-03-04T00:41:40;55.90;;;37.97;;
12302;SDS011;6214;48.012;7.862;2023-03-04T00:44:07;56.75;;;36.67;;
12302;SDS011;6214;48.012;7.862;2023-03-04T00:46:34;52.03;;;35.45;;
12302;SDS011;6214;48.012;7.862;2023-03-04T00:49:01;53.15;;;37.00;;
12302;SDS011;6214;48.012;7.862;2023-03-04T00:51:28;54.33;;;36.20;;
12302;SDS011;6214;48.012;7.862;2023-03-04T00:53:55;53.38;;;36.72;;
12302;SDS011;6214;48.012;7.862;2023-03-04T00:56:25;55.90;;;37.42;;
12302;SDS011;6214;48.012;7.862;2023-03-04T00:58:53;54.80;;;36.80;;
12302;SDS011;6214;48.012;7.862;2023-03-04T01:01:20;52.97;;;35.30;;
12302;SDS011;6214;48.012;7.862;2023-03-04T01:03:47;54.10;;;36.05;;
12302;SDS011;6214;48.012;7.862;2023-03-04T01:06:14;53.10;;;36.20;;
12302;SDS011;6214;48.012;7.862;2023-03-04T01:08:41;51.25;;;35.25;;
12302;SDS011;6214;48.012;7.862;2023-03-04T01:11:08;55.58;;;37.10;;
12302;SDS011;6214;48.012;7.862;2023-03-04T01:13:35;56.65;;;37.50;;
12302;SDS011;6214;48.012;7.862;2023-03-04T01:16:02;51.78;;;35.70;;
12302;SDS011;6214;48.012;7.862;2023-03-04T01:18:30;52.50;;;35.85;;
12302;SDS011;6214;48.012;7.862;2023-03-04T01:20:57;54.67;;;37.13;;
12302;SDS011;6214;48.012;7.862;2023-03-04T01:23:25;53.03;;;34.40;;
12302;SDS011;6214;48.012;7.862;2023-03-04T01:25:52;53.75;;;36.13;;
12302;SDS011;6214;48.012;7.862;2023-03-04T01:28:19;51.65;;;35.60;;
12302;SDS011;6214;48.012;7.862;2023-03-04T01:30:46;53.30;;;36.00;;
12302;SDS011;6214;48.012;7.862;2023-03-04T01:33:13;53.28;;;36.90;;
12302;SDS011;6214;48.012;7.862;2023-03-04T01:35:40;52.60;;;34.20;;
12302;SDS011;6214;48.012;7.862;2023-03-04T01:38:07;52.50;;;35.13;;
12302;SDS011;6214;48.012;7.862;2023-03-04T01:40:34;51.83;;;35.00;;
12302;SDS011;6214;48.012;7.862;2023-03-04T01:43:03;54.15;;;35.33;;
12302;SDS011;6214;48.012;7.862;2023-03-04T01:45:30;52.28;;;35.08;;
12302;SDS011;6214;48.012;7.862;2023-03-04T01:47:58;54.15;;;36.53;;
12302;SDS011;6214;48.012;7.862;2023-03-04T01:50:29;50.35;;;33.78;;
12302;SDS011;6214;48.012;7.862;2023-03-04T01:52:59;54.70;;;35.53;;
12302;SDS011;6214;48.012;7.862;2023-03-04T01:55:27;53.78;;;34.67;;
12302;SDS011;6214;48.012;7.862;2023-03-04T01:57:54;52.67;;;34.35;;
12302;SDS011;6214;48.012;7.862;2023-03-04T02:00:32;52.45;;;35.35;;
12302;SDS011;6214;48.012;7.862;2023-03-04T02:03:04;53.42;;;34.60;;
12302;SDS011;6214;48.012;7.862;2023-03-04T02:05:38;52.75;;;35.08;;
12302;SDS011;6214;48.012;7.862;2023-03-04T02:08:08;52.42;;;35.25;;
12302;SDS011;6214;48.012;7.862;2023-03-04T02:10:37;50.47;;;33.10;;
12302;SDS011;6214;48.012;7.862;2023-03-04T02:13:05;52.63;;;34.70;;
12302;SDS011;6214;48.012;7.862;2023-03-04T02:15:32;50.08;;;32.50;;
12302;SDS011;6214;48.012;7.862;2023-03-04T02:17:59;49.72;;;33.03;;
12302;SDS011;6214;48.012;7.862;2023-03-04T02:20:33;50.20;;;34.00;;
12302;SDS011;6214;48.012;7.862;2023-03-04T02:23:19;48.88;;;33.33;;
12302;SDS011;6214;48.012;7.862;2023-03-04T02:28:43;50.85;;;33.58;;
12302;SDS011;6214;48.012;7.862;2023-03-04T02:31:33;50.47;;;33.70;;
12302;SDS011;6214;48.012;7.862;2023-03-04T02:34:06;50.00;;;32.70;;
12302;SDS011;6214;48.012;7.862;2023-03-04T02:36:57;50.80;;;32.40;;
12302;SDS011;6214;48.012;7.862;2023-03-04T02:39:32;51.58;;;33.05;;
12302;SDS011;6214;48.012;7.862;2023-03-04T02:42:01;50.63;;;34.03;;
12302;SDS011;6214;48.012;7.862;2023-03-04T02:44:29;52.60;;;34.28;;
12302;SDS011;6214;48.012;7.862;2023-03-04T02:47:00;47.95;;;32.50;;
12302;SDS011;6214;48.012;7.862;2023-03-04T02:49:28;51.83;;;34.55;;
12302;SDS011;6214;48.012;7.862;2023-03-04T02:54:38;50.75;;;33.13;;
12302;SDS011;6214;48.012;7.862;2023-03-04T02:57:06;50.65;;;33.50;;
12302;SDS011;6214;48.012;7.862;2023-03-04T02:59:36;50.42;;;33.17;;
12302;SDS011;6214;48.012;7.862;2023-03-04T03:02:04;50.15;;;33.38;;
12302;SDS011;6214;48.012;7.862;2023-03-04T03:04:32;49.38;;;32.47;;
12302;SDS011;6214;48.012;7.862;2023-03-04T03:07:01;50.25;;;32.70;;
12302;SDS011;6214;48.012;7.862;2023-03-04T03:09:28;51.35;;;34.53;;
12302;SDS011;6214;48.012;7.862;2023-03-04T03:11:55;54.23;;;33.80;;
12302;SDS011;6214;48.012;7.862;2023-03-04T03:14:22;52.38;;;34.55;;
12302;SDS011;6214;48.012;7.862;2023-03-04T03:16:49;49.50;;;32.60;;
12302;SDS011;6214;48.012;7.862;2023-03-04T03:19:16;50.20;;;32.33;;
12302;SDS011;6214;48.012;7.862;2023-03-04T03:21:43;51.15;;;33.75;;
12302;SDS011;6214;48.012;7.862;2023-03-04T03:24:10;48.90;;;32.57;;
12302;SDS011;6214;48.012;7.862;2023-03-04T03:26:37;50.22;;;31.98;;
12302;SDS011;6214;48.012;7.862;2023-03-04T03:29:05;49.00;;;32.38;;
12302;SDS011;6214;48.012;7.862;2023-03-04T03:31:32;49.13;;;32.47;;
12302;SDS011;6214;48.012;7.862;2023-03-04T03:33:59;47.80;;;31.40;;
12302;SDS011;6214;48.012;7.862;2023-03-04T03:36:25;49.05;;;32.33;;
12302;SDS011;6214;48.012;7.862;2023-03-04T03:38:53;49.00;;;33.05;;
12302;SDS011;6214;48.012;7.862;2023-03-04T03:41:20;47.15;;;31.60;;
12302;SDS011;6214;48.012;7.862;2023-03-04T03:43:46;48.10;;;31.13;;
12302;SDS011;6214;48.012;7.862;2023-03-04T03:46:13;48.80;;;31.40;;
12302;SDS011;6214;48.012;7.862;2023-03-04T03:48:40;48.15;;;31.40;;
12302;SDS011;6214;48.012;7.862;2023-03-04T03:51:07;50.35;;;32.10;;
12302;SDS011;6214;48.012;7.862;2023-03-04T03:53:34;48.07;;;31.20;;
12302;SDS011;6214;48.012;7.862;2023-03-04T03:56:01;47.53;;;31.50;;
12302;SDS011;6214;48.012;7.862;2023-03-04T03:58:28;47.70;;;30.10;;
12302;SDS011;6214;48.012;7.862;2023-03-04T04:00:55;48.65;;;31.35;;
12302;SDS011;6214;48.012;7.862;2023-03-04T04:03:23;47.42;;;30.20;;
12302;SDS011;6214;48.012;7.862;2023-03-04T04:05:50;48.78;;;31.08;;
12302;SDS011;6214;48.012;7.862;2023-03-04T04:08:17;45.60;;;29.85;;
12302;SDS011;6214;48.012;7.862;2023-03-04T04:10:44;45.70;;;28.43;;
12302;SDS011;6214;48.012;7.862;2023-03-04T04:13:11;46.55;;;30.13;;
12302;SDS011;6214;48.012;7.862;2023-03-04T04:15:38;47.17;;;30.55;;
12302;SDS011;6214;48.012;7.862;2023-03-04T04:18:06;44.72;;;28.90;;
12302;SDS011;6214;48.012;7.862;2023-03-04T04:20:33;47.05;;;29.50;;
12302;SDS011;6214;48.012;7.862;2023-03-04T04:23:01;48.35;;;29.65;;
12302;SDS011;6214;48.012;7.862;2023-03-04T04:25:28;49.50;;;32.47;;
12302;SDS011;6214;48.012;7.862;2023-03-04T04:27:56;48.20;;;30.23;;
12302;SDS011;6214;48.012;7.862;2023-03-04T04:30:22;46.10;;;30.55;;
12302;SDS011;6214;48.012;7.862;2023-03-04T04:32:50;46.75;;;29.55;;
12302;SDS011;6214;48.012;7.862;2023-03-04T04:35:17;47.85;;;31.25;;
12302;SDS011;6214;48.012;7.862;2023-03-04T04:37:44;46.05;;;29.30;;
12302;SDS011;6214;48.012;7.862;2023-03-04T04:40:11;48.35;;;30.48;;
12302;SDS011;6214;48.012;7.862;2023-03-04T04:42:38;49.00;;;30.95;;
12302;SDS011;6214;48.012;7.862;2023-03-04T04:45:05;46.38;;;29.88;;
12302;SDS011;6214;48.012;7.862;2023-03-04T04:47:33;46.80;;;30.13;;
12302;SDS011;6214;48.012;7.862;2023-03-04T04:49:59;46.90;;;29.40;;
12302;SDS011;6214;48.012;7.862;2023-03-04T04:52:26;44.97;;;28.87;;
12302;SDS011;6214;48.012;7.862;2023-03-04T04:54:53;47.03;;;29.92;;
12302;SDS011;6214;48.012;7.862;2023-03-04T04:57:20;45.90;;;28.60;;
12302;SDS011;6214;48.012;7.862;2023-03-04T04:59:47;48.90;;;29.25;;
12302;SDS011;6214;48.012;7.862;2023-03-04T05:02:14;46.33;;;28.95;;
12302;SDS011;6214;48.012;7.862;2023-03-04T05:04:41;46.53;;;29.17;;
12302;SDS011;6214;48.012;7.862;2023-03-04T05:07:08;47.63;;;29.70;;
12302;SDS011;6214;48.012;7.862;2023-03-04T05:09:35;44.70;;;29.40;;
12302;SDS011;6214;48.012;7.862;2023-03-04T05:12:02;45.80;;;29.33;;
12302;SDS011;6214;48.012;7.862;2023-03-04T05:14:29;46.42;;;29.42;;
12302;SDS011;6214;48.012;7.862;2023-03-04T05:16:56;46.33;;;28.63;;
12302;SDS011;6214;48.012;7.862;2023-03-04T05:19:22;44.13;;;28.02;;
12302;SDS011;6214;48.012;7.862;2023-03-04T05:21:49;43.55;;;27.45;;
12302;SDS011;6214;48.012;7.862;2023-03-04T05:24:16;45.70;;;29.00;;
12302;SDS011;6214;48.012;7.862;2023-03-04T05:26:43;43.40;;;27.17;;
12302;SDS011;6214;48.012;7.862;2023-03-04T05:29:10;45.25;;;27.50;;
12302;SDS011;6214;48.012;7.862;2023-03-04T05:31:37;46.10;;;28.00;;
12302;SDS011;6214;48.012;7.862;2023-03-04T05:34:04;47.10;;;28.80;;
12302;SDS011;6214;48.012;7.862;2023-03-04T05:36:31;45.05;;;28.10;;
12302;SDS011;6214;48.012;7.862;2023-03-04T05:38:58;43.80;;;26.63;;
12302;SDS011;6214;48.012;7.862;2023-03-04T05:41:25;46.38;;;28.20;;
12302;SDS011;6214;48.012;7.862;2023-03-04T05:43:52;46.42;;;28.00;;
12302;SDS011;6214;48.012;7.862;2023-03-04T05:46:19;46.30;;;28.40;;
12302;SDS011;6214;48.012;7.862;2023-03-04T05:48:51;43.08;;;27.90;;
12302;SDS011;6214;48.012;7.862;2023-03-04T05:51:19;48.53;;;29.20;;
12302;SDS011;6214;48.012;7.862;2023-03-04T05:53:47;46.40;;;29.63;;
12302;SDS011;6214;48.012;7.862;2023-03-04T05:56:16;46.53;;;28.25;;
12302;SDS011;6214;48.012;7.862;2023-03-04T05:58:44;46.97;;;29.17;;
12302;SDS011;6214;48.012;7.862;2023-03-04T06:01:12;44.92;;;28.70;;
12302;SDS011;6214;48.012;7.862;2023-03-04T06:03:40;47.03;;;28.47;;
12302;SDS011;6214;48.012;7.862;2023-03-04T06:06:09;46.40;;;29.80;;
12302;SDS011;6214;48.012;7.862;2023-03-04T06:08:36;47.67;;;30.02;;
12302;SDS011;6214;48.012;7.862;2023-03-04T06:11:03;45.50;;;28.50;;
12302;SDS011;6214;48.012;7.862;2023-03-04T06:13:32;42.72;;;26.75;;
12302;SDS011;6214;48.012;7.862;2023-03-04T06:15:59;43.13;;;27.35;;
12302;SDS011;6214;48.012;7.862;2023-03-04T06:18:26;43.67;;;27.67;;
12302;SDS011;6214;48.012;7.862;2023-03-04T06:20:54;46.70;;;27.47;;
12302;SDS011;6214;48.012;7.862;2023-03-04T06:23:26;43.63;;;26.73;;
12302;SDS011;6214;48.012;7.862;2023-03-04T06:25:53;45.50;;;27.60;;
12302;SDS011;6214;48.012;7.862;2023-03-04T06:28:22;43.83;;;27.23;;
12302;SDS011;6214;48.012;7.862;2023-03-04T06:30:53;44.30;;;27.20;;
12302;SDS011;6214;48.012;7.862;2023-03-04T06:33:21;46.90;;;27.60;;
12302;SDS011;6214;48.012;7.862;2023-03-04T06:35:52;44.08;;;28.30;;
12302;SDS011;6214;48.012;7.862;2023-03-04T06:38:21;45.17;;;27.30;;
12302;SDS011;6214;48.012;7.862;2023-03-04T06:40:48;42.00;;;27.13;;
12302;SDS011;6214;48.012;7.862;2023-03-04T06:43:15;43.47;;;26.48;;
12302;SDS011;6214;48.012;7.862;2023-03-04T06:45:41;40.70;;;27.10;;
12302;SDS011;6214;48.012;7.862;2023-03-04T06:48:08;41.40;;;26.25;;
12302;SDS011;6214;48.012;7.862;2023-03-04T06:50:35;43.25;;;26.38;;
12302;SDS011;6214;48.012;7.862;2023-03-04T06:53:02;45.47;;;28.58;;
12302;SDS011;6214;48.012;7.862;2023-03-04T06:55:29;39.15;;;25.67;;
12302;SDS011;6214;48.012;7.862;2023-03-04T06:57:56;42.08;;;26.40;;
12302;SDS011;6214;48.012;7.862;2023-03-04T07:00:23;45.65;;;27.33;;
12302;SDS011;6214;48.012;7.862;2023-03-04T07:02:50;42.50;;;26.95;;
12302;SDS011;6214;48.012;7.862;2023-03-04T07:05:20;42.92;;;28.52;;
12302;SDS011;6214;48.012;7.862;2023-03-04T07:07:47;44.80;;;28.35;;
12302;SDS011;6214;48.012;7.862;2023-03-04T07:10:16;41.40;;;26.48;;
12302;SDS011;6214;48.012;7.862;2023-03-04T07:12:43;43.47;;;27.95;;
12302;SDS011;6214;48.012;7.862;2023-03-04T07:15:11;41.95;;;27.30;;
12302;SDS011;6214;48.012;7.862;2023-03-04T07:17:38;43.77;;;29.07;;
12302;SDS011;6214;48.012;7.862;2023-03-04T07:20:05;45.13;;;28.50;;
12302;SDS011;6214;48.012;7.862;2023-03-04T07:22:32;46.05;;;30.02;;
12302;SDS011;6214;48.012;7.862;2023-03-04T07:24:59;47.72;;;31.38;;
12302;SDS011;6214;48.012;7.862;2023-03-04T07:27:25;49.92;;;32.20;;
12302;SDS011;6214;48.012;7.862;2023-03-04T07:29:52;46.90;;;31.60;;
12302;SDS011;6214;48.012;7.862;2023-03-04T07:32:19;47.23;;;31.90;;
12302;SDS011;6214;48.012;7.862;2023-03-04T07:34:46;46.05;;;30.60;;
12302;SDS011;6214;48.012;7.862;2023-03-04T07:37:13;45.35;;;29.98;;
12302;SDS011;6214;48.012;7.862;2023-03-04T07:39:40;44.30;;;29.35;;
12302;SDS011;6214;48.012;7.862;2023-03-04T07:42:07;47.35;;;30.98;;
12302;SDS011;6214;48.012;7.862;2023-03-04T07:44:34;46.80;;;32.45;;
12302;SDS011;6214;48.012;7.862;2023-03-04T07:47:00;47.75;;;32.72;;
12302;SDS011;6214;48.012;7.862;2023-03-04T07:49:27;45.43;;;31.30;;
12302;SDS011;6214;48.012;7.862;2023-03-04T07:51:54;49.77;;;31.83;;
12302;SDS011;6214;48.012;7.862;2023-03-04T07:54:21;49.90;;;33.03;;
12302;SDS011;6214;48.012;7.862;2023-03-04T07:56:48;51.10;;;33.35;;
12302;SDS011;6214;48.012;7.862;2023-03-04T07:59:15;53.00;;;33.03;;
12302;SDS011;6214;48.012;7.862;2023-03-04T08:01:42;51.83;;;33.25;;
12302;SDS011;6214;48.012;7.862;2023-03-04T08:04:10;48.95;;;32.10;;
12302;SDS011;6214;48.012;7.862;2023-03-04T08:06:38;45.42;;;27.75;;
12302;SDS011;6214;48.012;7.862;2023-03-04T08:09:06;49.15;;;29.40;;
12302;SDS011;6214;48.012;7.862;2023-03-04T08:11:35;46.95;;;29.05;;
12302;SDS011;6214;48.012;7.862;2023-03-04T08:14:03;46.33;;;29.27;;
12302;SDS011;6214;48.012;7.862;2023-03-04T08:16:30;50.08;;;31.48;;
12302;SDS011;6214;48.012;7.862;2023-03-04T08:18:58;49.20;;;30.20;;
12302;SDS011;6214;48.012;7.862;2023-03-04T08:21:26;48.70;;;30.63;;
12302;SDS011;6214;48.012;7.862;2023-03-04T08:23:55;49.00;;;30.38;;
12302;SDS011;6214;48.012;7.862;2023-03-04T08:26:27;51.92;;;31.73;;
12302;SDS011;6214;48.012;7.862;2023-03-04T08:28:56;49.08;;;30.15;;
12302;SDS011;6214;48.012;7.862;2023-03-04T08:31:25;49.42;;;28.75;;
12302;SDS011;6214;48.012;7.862;2023-03-04T08:33:53;53.00;;;32.20;;
12302;SDS011;6214;48.012;7.862;2023-03-04T08:36:20;56.42;;;35.35;;
12302;SDS011;6214;48.012;7.862;2023-03-04T08:38:47;57.85;;;34.08;;
12302;SDS011;6214;48.012;7.862;2023-03-04T08:41:13;54.92;;;34.45;;
12302;SDS011;6214;48.012;7.862;2023-03-04T08:43:42;55.05;;;33.15;;
12302;SDS011;6214;48.012;7.862;2023-03-04T08:46:09;54.67;;;33.97;;
12302;SDS011;6214;48.012;7.862;2023-03-04T08:48:37;56.90;;;33.75;;
12302;SDS011;6214;48.012;7.862;2023-03-04T08:51:11;55.72;;;34.78;;
12302;SDS011;6214;48.012;7.862;2023-03-04T08:53:39;56.53;;;35.30;;
12302;SDS011;6214;48.012;7.862;2023-03-04T08:56:06;57.75;;;35.80;;
12302;SDS011;6214;48.012;7.862;2023-03-04T08:58:34;56.63;;;35.15;;
12302;SDS011;6214;48.012;7.862;2023-03-04T09:01:01;57.07;;;34.63;;
12302;SDS011;6214;48.012;7.862;2023-03-04T09:03:29;54.65;;;34.38;;
12302;SDS011;6214;48.012;7.862;2023-03-04T09:05:56;56.17;;;35.10;;
12302;SDS011;6214;48.012;7.862;2023-03-04T09:08:23;56.13;;;35.28;;
12302;SDS011;6214;48.012;7.862;2023-03-04T09:10:51;54.90;;;33.93;;
12302;SDS011;6214;48.012;7.862;2023-03-04T09:13:19;56.17;;;35.55;;
12302;SDS011;6214;48.012;7.862;2023-03-04T09:15:47;57.50;;;36.80;;
12302;SDS011;6214;48.012;7.862;2023-03-04T09:18:16;61.30;;;38.13;;
12302;SDS011;6214;48.012;7.862;2023-03-04T09:20:44;62.90;;;40.25;;
12302;SDS011;6214;48.012;7.862;2023-03-04T09:23:12;55.53;;;36.50;;
12302;SDS011;6214;48.012;7.862;2023-03-04T09:25:39;60.08;;;36.72;;
12302;SDS011;6214;48.012;7.862;2023-03-04T09:28:07;54.85;;;34.35;;
12302;SDS011;6214;48.012;7.862;2023-03-04T09:30:35;55.50;;;35.33;;
12302;SDS011;6214;48.012;7.862;2023-03-04T09:33:02;60.87;;;37.20;;
12302;SDS011;6214;48.012;7.862;2023-03-04T09:35:29;58.53;;;36.83;;
12302;SDS011;6214;48.012;7.862;2023-03-04T09:37:57;57.00;;;35.83;;
12302;SDS011;6214;48.012;7.862;2023-03-04T09:40:29;57.40;;;36.70;;
12302;SDS011;6214;48.012;7.862;2023-03-04T09:43:24;55.90;;;35.90;;
12302;SDS011;6214;48.012;7.862;2023-03-04T09:45:59;55.85;;;35.03;;
12302;SDS011;6214;48.012;7.862;2023-03-04T09:48:31;57.25;;;35.25;;
12302;SDS011;6214;48.012;7.862;2023-03-04T09:56:36;58.17;;;36.50;;
12302;SDS011;6214;48.012;7.862;2023-03-04T09:59:28;59.95;;;36.35;;
12302;SDS011;6214;48.012;7.862;2023-03-04T10:02:06;60.45;;;37.50;;
12302;SDS011;6214;48.012;7.862;2023-03-04T10:05:02;61.33;;;39.15;;
12302;SDS011;6214;48.012;7.862;2023-03-04T10:07:34;59.17;;;37.13;;
12302;SDS011;6214;48.012;7.862;2023-03-04T10:12:45;58.10;;;35.83;;
12302;SDS011;6214;48.012;7.862;2023-03-04T10:18:06;59.10;;;37.10;;
12302;SDS011;6214;48.012;7.862;2023-03-04T10:20:57;56.65;;;35.60;;
12302;SDS011;6214;48.012;7.862;2023-03-04T10:23:46;55.42;;;35.45;;
12302;SDS011;6214;48.012;7.862;2023-03-04T10:26:16;59.08;;;36.95;;
12302;SDS011;6214;48.012;7.862;2023-03-04T10:28:46;55.22;;;35.70;;
12302;SDS011;6214;48.012;7.862;2023-03-04T10:31:16;55.20;;;35.03;;
12302;SDS011;6214;48.012;7.862;2023-03-04T10:33:52;59.25;;;38.35;;
12302;SDS011;6214;48.012;7.862;2023-03-04T10:39:07;53.58;;;34.92;;
12302;SDS011;6214;48.012;7.862;2023-03-04T10:41:36;58.08;;;37.55;;
12302;SDS011;6214;48.012;7.862;2023-03-04T10:46:39;54.47;;;35.78;;
12302;SDS011;6214;48.012;7.862;2023-03-04T10:49:08;55.10;;;37.13;;
12302;SDS011;6214;48.012;7.862;2023-03-04T10:51:43;56.88;;;35.10;;
12302;SDS011;6214;48.012;7.862;2023-03-04T10:57:31;54.85;;;35.22;;
12302;SDS011;6214;48.012;7.862;2023-03-04T11:00:03;56.25;;;36.88;;
12302;SDS011;6214;48.012;7.862;2023-03-04T11:02:48;56.60;;;35.97;;
12302;SDS011;6214;48.012;7.862;2023-03-04T11:05:22;55.38;;;36.95;;
12302;SDS011;6214;48.012;7.862;2023-03-04T11:07:54;54.70;;;36.28;;
12302;SDS011;6214;48.012;7.862;2023-03-04T11:10:25;59.05;;;37.35;;
12302;SDS011;6214;48.012;7.862;2023-03-04T11:13:14;59.30;;;38.50;;
12302;SDS011;6214;48.012;7.862;2023-03-04T11:18:29;60.23;;;39.53;;
12302;SDS011;6214;48.012;7.862;2023-03-04T11:21:19;52.47;;;35.08;;
12302;SDS011;6214;48.012;7.862;2023-03-04T11:23:52;58.17;;;37.73;;
12302;SDS011;6214;48.012;7.862;2023-03-04T11:26:41;55.45;;;37.10;;
12302;SDS011;6214;48.012;7.862;2023-03-04T11:29:19;54.40;;;36.42;;
12302;SDS011;6214;48.012;7.862;2023-03-04T11:34:52;53.35;;;34.40;;
12302;SDS011;6214;48.012;7.862;2023-03-04T11:56:52;57.17;;;37.90;;
12302;SDS011;6214;48.012;7.862;2023-03-04T11:59:28;56.33;;;35.88;;
12302;SDS011;6214;48.012;7.862;2023-03-04T12:02:18;53.43;;;33.03;;
12302;SDS011;6214;48.012;7.862;2023-03-04T12:13:41;55.73;;;36.67;;
12302;SDS011;6214;48.012;7.862;2023-03-04T12:36:16;53.10;;;36.15;;
12302;SDS011;6214;48.012;7.862;2023-03-04T12:41:24;51.90;;;34.03;;
12302;SDS011;6214;48.012;7.862;2023-03-04T12:47:28;48.80;;;31.03;;
12302;SDS011;6214;48.012;7.862;2023-03-04T12:55:39;46.17;;;28.63;;
12302;SDS011;6214;48.012;7.862;2023-03-04T12:58:16;50.20;;;31.73;;
12302;SDS011;6214;48.012;7.862;2023-03-04T13:01:08;51.28;;;33.58;;
12302;SDS011;6214;48.012;7.862;2023-03-04T13:04:14;49.03;;;32.60;;
12302;SDS011;6214;48.012;7.862;2023-03-04T13:09:44;47.07;;;30.13;;
12302;SDS011;6214;48.012;7.862;2023-03-04T13:12:19;48.65;;;31.10;;
12302;SDS011;6214;48.012;7.862;2023-03-04T13:22:57;44.40;;;30.45;;
12302;SDS011;6214;48.012;7.862;2023-03-04T13:25:32;43.55;;;27.55;;
12302;SDS011;6214;48.012;7.862;2023-03-04T13:43:42;47.45;;;30.92;;
12302;SDS011;6214;48.012;7.862;2023-03-04T14:06:46;42.58;;;27.33;;
12302;SDS011;6214;48.012;7.862;2023-03-04T14:09:17;44.28;;;29.20;;
12302;SDS011;6214;48.012;7.862;2023-03-04T14:11:47;44.90;;;28.67;;
12302;SDS011;6214;48.012;7.862;2023-03-04T14:14:20;43.15;;;28.67;;
12302;SDS011;6214;48.012;7.862;2023-03-04T14:16:57;42.92;;;27.27;;
12302;SDS011;6214;48.012;7.862;2023-03-04T14:19:27;44.85;;;28.55;;
12302;SDS011;6214;48.012;7.862;2023-03-04T14:21:56;44.33;;;29.10;;
12302;SDS011;6214;48.012;7.862;2023-03-04T14:24:25;42.58;;;27.95;;
12302;SDS011;6214;48.012;7.862;2023-03-04T14:27:11;42.00;;;27.70;;
12302;SDS011;6214;48.012;7.862;2023-03-04T14:29:39;42.00;;;27.20;;
12302;SDS011;6214;48.012;7.862;2023-03-04T14:32:06;43.83;;;29.57;;
12302;SDS011;6214;48.012;7.862;2023-03-04T14:34:34;43.42;;;28.70;;
12302;SDS011;6214;48.012;7.862;2023-03-04T14:37:03;42.58;;;28.73;;
12302;SDS011;6214;48.012;7.862;2023-03-04T14:39:49;43.17;;;27.60;;
12302;SDS011;6214;48.012;7.862;2023-03-04T14:42:22;42.15;;;27.08;;
12302;SDS011;6214;48.012;7.862;2023-03-04T14:44:55;43.00;;;28.60;;
12302;SDS011;6214;48.012;7.862;2023-03-04T14:47:30;41.47;;;25.40;;
12302;SDS011;6214;48.012;7.862;2023-03-04T14:50:06;42.83;;;27.73;;
12302;SDS011;6214;48.012;7.862;2023-03-04T14:52:48;40.75;;;25.35;;
12302;SDS011;6214;48.012;7.862;2023-03-04T14:55:28;41.28;;;27.33;;
12302;SDS011;6214;48.012;7.862;2023-03-04T14:58:06;39.13;;;22.70;;
12302;SDS011;6214;48.012;7.862;2023-03-04T15:00:35;41.28;;;26.45;;
12302;SDS011;6214;48.012;7.862;2023-03-04T15:05:47;41.67;;;27.00;;
12302;SDS011;6214;48.012;7.862;2023-03-04T15:10:59;41.03;;;23.10;;
12302;SDS011;6214;48.012;7.862;2023-03-04T15:16:06;41.30;;;24.88;;
12302;SDS011;6214;48.012;7.862;2023-03-04T15:18:34;43.50;;;27.23;;
12302;SDS011;6214;48.012;7.862;2023-03-04T15:21:03;45.15;;;28.65;;
12302;SDS011;6214;48.012;7.862;2023-03-04T15:23:32;39.67;;;23.05;;
12302;SDS011;6214;48.012;7.862;2023-03-04T15:26:02;43.50;;;28.30;;
12302;SDS011;6214;48.012;7.862;2023-03-04T15:28:33;43.10;;;27.38;;
12302;SDS011;6214;48.012;7.862;2023-03-04T15:31:02;43.45;;;26.25;;
12302;SDS011;6214;48.012;7.862;2023-03-04T15:33:30;41.60;;;23.63;;
12302;SDS011;6214;48.012;7.862;2023-03-04T15:36:00;48.35;;;29.13;;
12302;SDS011;6214;48.012;7.862;2023-03-04T15:38:28;47.97;;;30.33;;
12302;SDS011;6214;48.012;7.862;2023-03-04T15:40:56;44.85;;;27.58;;
12302;SDS011;6214;48.012;7.862;2023-03-04T15:43:24;46.45;;;27.92;;
12302;SDS011;6214;48.012;7.862;2023-03-04T15:45:52;45.85;;;28.88;;
12302;SDS011;6214;48.012;7.862;2023-03-04T15:48:19;44.33;;;27.77;;
12302;SDS011;6214;48.012;7.862;2023-03-04T15:50:47;44.20;;;28.23;;
12302;SDS011;6214;48.012;7.862;2023-03-04T15:53:24;43.90;;;26.90;;
12302;SDS011;6214;48.012;7.862;2023-03-04T15:56:13;45.80;;;28.40;;
12302;SDS011;6214;48.012;7.862;2023-03-04T15:58:43;45.03;;;27.73;;
12302;SDS011;6214;48.012;7.862;2023-03-04T16:01:18;40.28;;;21.90;;
12302;SDS011;6214;48.012;7.862;2023-03-04T16:03:45;46.38;;;28.77;;
12302;SDS011;6214;48.012;7.862;2023-03-04T16:06:12;46.42;;;26.33;;
12302;SDS011;6214;48.012;7.862;2023-03-04T16:08:40;48.33;;;31.08;;
12302;SDS011;6214;48.012;7.862;2023-03-04T16:11:26;49.30;;;31.42;;
12302;SDS011;6214;48.012;7.862;2023-03-04T16:13:54;47.70;;;30.67;;
12302;SDS011;6214;48.012;7.862;2023-03-04T16:16:21;47.35;;;30.15;;
12302;SDS011;6214;48.012;7.862;2023-03-04T16:18:48;48.20;;;31.00;;
12302;SDS011;6214;48.012;7.862;2023-03-04T16:21:18;45.67;;;27.90;;
12302;SDS011;6214;48.012;7.862;2023-03-04T16:23:48;47.25;;;29.85;;
12302;SDS011;6214;48.012;7.862;2023-03-04T16:26:17;49.80;;;31.88;;
12302;SDS011;6214;48.012;7.862;2023-03-04T16:28:47;52.53;;;31.27;;
12302;SDS011;6214;48.012;7.862;2023-03-04T16:31:15;61.25;;;43.92;;
12302;SDS011;6214;48.012;7.862;2023-03-04T16:33:42;56.03;;;37.47;;
12302;SDS011;6214;48.012;7.862;2023-03-04T16:36:28;47.20;;;30.45;;
12302;SDS011;6214;48.012;7.862;2023-03-04T16:38:56;47.60;;;29.38;;
12302;SDS011;6214;48.012;7.862;2023-03-04T16:41:28;49.78;;;30.40;;
12302;SDS011;6214;48.012;7.862;2023-03-04T16:43:58;46.38;;;28.70;;
12302;SDS011;6214;48.012;7.862;2023-03-04T16:46:26;49.47;;;31.35;;
12302;SDS011;6214;48.012;7.862;2023-03-04T16:48:53;48.80;;;30.77;;
12302;SDS011;6214;48.012;7.862;2023-03-04T16:51:21;46.65;;;29.40;;
12302;SDS011;6214;48.012;7.862;2023-03-04T16:53:52;48.22;;;31.02;;
12302;SDS011;6214;48.012;7.862;2023-03-04T16:56:21;50.90;;;31.00;;
12302;SDS011;6214;48.012;7.862;2023-03-04T16:58:48;48.88;;;30.85;;
12302;SDS011;6214;48.012;7.862;2023-03-04T17:01:23;48.80;;;31.08;;
12302;SDS011;6214;48.012;7.862;2023-03-04T17:03:52;48.78;;;30.75;;
12302;SDS011;6214;48.012;7.862;2023-03-04T17:06:20;48.75;;;30.92;;
12302;SDS011;6214;48.012;7.862;2023-03-04T17:08:47;50.60;;;31.42;;
12302;SDS011;6214;48.012;7.862;2023-03-04T17:11:15;50.58;;;30.70;;
12302;SDS011;6214;48.012;7.862;2023-03-04T17:13:48;52.28;;;31.75;;
12302;SDS011;6214;48.012;7.862;2023-03-04T17:16:15;50.88;;;32.55;;